Time;durP1;ratioP1;P1;durP2;ratioP2;P2;SDS_P1;SDS_P2;PMS_P1;PMS_P2;Temp;Humidity;BMP_temperature;BMP_pressure;BME280_temperature;BME280_humidity;BME280_pressure;Samples;Min_cycle;Max_cycle;Signal;HPM_P1;HPM_P2
2024/01/12 00:00:29;;;;;;;21.13;4.00;;;4.40;99.90;;;;;;5014472;28;20245;-77
2024/01/12 00:02:55;;;;;;;30.42;4.43;;;4.40;99.90;;;;;;4949593;29;20073;-77
2024/01/12 00:05:20;;;;;;;35.38;4.40;;;4.40;99.90;;;;;;4949463;28;20035;-77
2024/01/12 00:07:46;;;;;;;31.75;4.35;;;4.40;99.90;;;;;;4947797;28;20031;-77
2024/01/12 00:10:12;;;;;;;27.67;3.90;;;4.40;99.90;;;;;;4931870;28;20032;-77
2024/01/12 00:12:37;;;;;;;32.88;4.38;;;4.50;99.90;;;;;;4944995;28;21600;-77
2024/01/12 00:15:05;;;;;;;31.35;4.20;;;4.40;99.90;;;;;;4949471;28;20023;-77
2024/01/12 00:17:30;;;;;;;27.50;5.63;;;4.50;99.90;;;;;;5025312;28;20055;-77
2024/01/12 00:19:56;;;;;;;29.45;4.75;;;4.40;99.90;;;;;;4947716;28;20484;-77
2024/01/12 00:22:21;;;;;;;29.60;4.45;;;4.40;99.90;;;;;;4945412;28;20054;-77
2024/01/12 00:24:48;;;;;;;27.95;4.53;;;4.40;99.90;;;;;;4950161;28;20058;-77
2024/01/12 00:27:14;;;;;;;20.95;4.65;;;4.40;99.90;;;;;;4949757;28;20026;-77
2024/01/12 00:29:40;;;;;;;29.70;4.63;;;4.40;99.90;;;;;;4949535;28;20031;-77
2024/01/12 00:32:06;;;;;;;32.70;5.00;;;4.40;99.90;;;;;;4949066;29;20027;-78
2024/01/12 00:34:32;;;;;;;26.08;4.50;;;4.40;99.90;;;;;;5015172;28;20034;-77
2024/01/12 00:36:57;;;;;;;25.75;3.97;;;4.40;99.90;;;;;;4946954;28;20024;-77
2024/01/12 00:39:23;;;;;;;30.05;4.57;;;4.40;99.90;;;;;;4939888;29;20040;-77
2024/01/12 00:41:50;;;;;;;30.17;4.30;;;4.40;99.90;;;;;;4948620;28;20094;-77
2024/01/12 00:44:18;;;;;;;29.77;4.30;;;4.40;99.90;;;;;;4948150;28;20058;-77
2024/01/12 00:46:44;;;;;;;23.10;4.55;;;4.40;99.90;;;;;;4949118;28;20443;-77
2024/01/12 00:49:11;;;;;;;21.02;3.88;;;4.30;99.90;;;;;;4936039;29;20028;-77
2024/01/12 00:51:36;;;;;;;28.92;4.55;;;4.30;99.90;;;;;;4941186;28;20469;-76
2024/01/12 00:54:03;;;;;;;26.95;4.20;;;4.30;99.90;;;;;;4948666;28;20038;-77
2024/01/12 00:56:29;;;;;;;30.48;4.65;;;4.30;99.90;;;;;;4948683;28;20062;-77
2024/01/12 00:58:54;;;;;;;32.42;4.32;;;4.30;99.90;;;;;;4948272;28;20453;-76
2024/01/12 01:01:21;;;;;;;21.30;3.83;;;4.30;99.90;;;;;;4948597;29;20090;-77
2024/01/12 01:03:47;;;;;;;31.48;4.50;;;4.30;99.90;;;;;;4949209;28;20015;-77
2024/01/12 01:06:13;;;;;;;29.02;4.20;;;4.30;99.90;;;;;;4948501;28;20046;-77
2024/01/12 01:08:38;;;;;;;26.95;4.05;;;4.30;99.90;;;;;;5023130;28;20439;-77
2024/01/12 01:11:04;;;;;;;25.13;4.28;;;4.30;99.90;;;;;;4933935;28;20027;-77
2024/01/12 01:13:31;;;;;;;30.50;4.53;;;4.30;99.90;;;;;;4948781;28;20049;-77
2024/01/12 01:15:57;;;;;;;23.70;3.60;;;4.30;99.90;;;;;;4948414;29;20019;-77
2024/01/12 01:18:23;;;;;;;31.15;4.10;;;4.30;99.90;;;;;;4948058;28;20051;-76
2024/01/12 01:20:48;;;;;;;24.33;4.03;;;4.30;99.90;;;;;;4940954;28;20112;-77
2024/01/12 01:23:14;;;;;;;31.73;4.15;;;4.30;99.90;;;;;;4948566;28;20049;-77
2024/01/12 01:25:39;;;;;;;30.10;4.32;;;4.30;99.90;;;;;;4948307;28;20028;-77
2024/01/12 01:28:05;;;;;;;29.35;4.53;;;4.30;99.90;;;;;;4948152;28;20024;-77
2024/01/12 01:30:30;;;;;;;27.90;3.50;;;4.30;99.90;;;;;;4951166;28;20023;-77
2024/01/12 01:32:56;;;;;;;23.90;3.95;;;4.30;99.90;;;;;;4952275;28;20523;-77
2024/01/12 01:35:22;;;;;;;21.60;3.53;;;4.30;99.90;;;;;;4948282;28;20015;-77
2024/01/12 01:37:50;;;;;;;29.02;4.15;;;4.30;99.90;;;;;;4951944;28;20498;-77
2024/01/12 01:40:15;;;;;;;28.25;4.13;;;4.30;99.90;;;;;;4940565;28;20023;-77
2024/01/12 01:42:41;;;;;;;23.88;3.78;;;4.30;99.90;;;;;;4950915;28;20494;-77
2024/01/12 01:45:07;;;;;;;24.23;3.47;;;4.30;99.90;;;;;;4951370;28;20023;-78
2024/01/12 01:47:33;;;;;;;26.70;3.67;;;4.30;99.90;;;;;;4951262;28;20046;-77
2024/01/12 01:49:58;;;;;;;29.90;3.97;;;4.30;99.90;;;;;;5034193;28;20484;-77
2024/01/12 01:52:27;;;;;;;18.85;3.58;;;4.30;99.90;;;;;;4952054;28;20081;-77
2024/01/12 01:54:57;;;;;;;25.10;3.78;;;4.20;99.90;;;;;;4951686;28;20477;-78
2024/01/12 01:57:26;;;;;;;19.63;3.30;;;4.20;99.90;;;;;;4950734;28;20065;-77
2024/01/12 01:59:52;;;;;;;28.90;3.85;;;4.20;99.90;;;;;;4951844;28;20041;-77
2024/01/12 02:02:17;;;;;;;26.85;3.83;;;4.20;99.90;;;;;;4950681;28;20020;-78
2024/01/12 02:04:43;;;;;;;25.30;3.40;;;4.20;99.90;;;;;;4946254;28;20504;-77
2024/01/12 02:07:09;;;;;;;27.55;3.85;;;4.20;99.90;;;;;;4950694;29;20070;-78
2024/01/12 02:09:35;;;;;;;27.95;3.70;;;4.20;99.90;;;;;;4950922;28;20039;-77
2024/01/12 02:12:04;;;;;;;21.15;3.85;;;4.20;99.90;;;;;;4951181;28;20042;-77
2024/01/12 02:14:30;;;;;;;18.83;3.40;;;4.20;99.90;;;;;;4941742;28;20066;-77
2024/01/12 02:16:56;;;;;;;23.08;3.47;;;4.20;99.90;;;;;;4950681;28;20529;-77
2024/01/12 02:19:23;;;;;;;22.35;4.03;;;4.20;99.90;;;;;;4950696;28;20480;-77
2024/01/12 02:21:48;;;;;;;19.40;3.33;;;4.20;99.90;;;;;;4950668;28;20038;-77
2024/01/12 02:24:14;;;;;;;25.17;3.90;;;4.20;99.90;;;;;;4944154;29;20016;-77
2024/01/12 02:26:39;;;;;;;21.23;3.75;;;4.20;99.90;;;;;;4951047;28;20054;-77
2024/01/12 02:29:05;;;;;;;21.55;3.35;;;4.10;99.90;;;;;;4950861;28;20122;-78
2024/01/12 02:31:31;;;;;;;33.80;3.92;;;4.10;99.90;;;;;;4951283;28;20032;-77
2024/01/12 02:33:56;;;;;;;20.65;3.63;;;4.10;99.90;;;;;;4949565;28;20029;-77
2024/01/12 02:36:26;;;;;;;27.50;3.97;;;4.10;99.90;;;;;;4949042;29;20051;-77
2024/01/12 02:38:52;;;;;;;24.92;3.50;;;4.10;99.90;;;;;;4950007;28;20042;-77
2024/01/12 02:41:18;;;;;;;24.30;3.95;;;4.10;99.90;;;;;;4951012;28;20499;-77
2024/01/12 02:43:44;;;;;;;18.42;3.60;;;4.10;99.90;;;;;;4950587;28;20036;-77
2024/01/12 02:46:10;;;;;;;26.95;3.95;;;4.10;99.90;;;;;;4950286;28;20030;-78
2024/01/12 02:48:35;;;;;;;21.92;4.20;;;4.10;99.90;;;;;;4950784;28;20067;-78
2024/01/12 02:51:01;;;;;;;26.55;3.97;;;4.10;99.90;;;;;;4936807;28;20518;-78
2024/01/12 02:53:26;;;;;;;23.92;5.30;;;4.10;99.90;;;;;;4944147;28;20027;-77
2024/01/12 02:55:52;;;;;;;18.52;4.43;;;4.10;99.90;;;;;;4949959;28;20499;-78
2024/01/12 02:58:17;;;;;;;23.35;4.38;;;4.00;99.90;;;;;;5023247;28;20024;-78
2024/01/12 03:00:43;;;;;;;21.30;5.07;;;4.00;99.90;;;;;;4946509;28;20024;-77
2024/01/12 03:03:09;;;;;;;25.23;4.25;;;4.10;99.90;;;;;;4950426;28;20026;-78
2024/01/12 03:05:35;;;;;;;26.13;4.32;;;4.00;99.90;;;;;;4950359;28;20464;-78
2024/01/12 03:08:01;;;;;;;19.85;4.07;;;4.00;99.90;;;;;;4950749;28;20031;-77
2024/01/12 03:10:26;;;;;;;21.42;4.45;;;4.00;99.90;;;;;;4950914;28;20031;-78
2024/01/12 03:12:52;;;;;;;21.17;3.80;;;4.00;99.90;;;;;;4949540;28;20133;-78
2024/01/12 03:15:18;;;;;;;14.88;3.78;;;4.00;99.90;;;;;;4942499;29;20427;-77
2024/01/12 03:17:43;;;;;;;21.55;4.30;;;4.00;99.90;;;;;;4941634;29;20112;-78
2024/01/12 03:20:09;;;;;;;23.15;4.53;;;4.00;99.90;;;;;;4949974;28;20020;-78
2024/01/12 03:22:36;;;;;;;24.50;4.28;;;4.00;99.90;;;;;;4939509;29;20676;-78
2024/01/12 03:25:01;;;;;;;14.77;3.85;;;4.00;99.90;;;;;;4949591;28;20102;-77
2024/01/12 03:27:27;;;;;;;16.67;4.10;;;4.00;99.90;;;;;;4950220;28;20173;-77
2024/01/12 03:29:53;;;;;;;17.23;4.28;;;4.00;99.90;;;;;;4949561;28;20447;-77
2024/01/12 03:32:21;;;;;;;23.42;4.47;;;4.00;99.90;;;;;;4943239;29;20504;-77
2024/01/12 03:34:46;;;;;;;18.45;4.43;;;4.00;99.90;;;;;;4948961;28;20038;-77
2024/01/12 03:37:12;;;;;;;19.77;4.10;;;4.00;99.90;;;;;;4946400;28;20694;-77
2024/01/12 03:39:38;;;;;;;20.15;4.30;;;4.00;99.90;;;;;;4946213;28;20109;-77
2024/01/12 03:42:04;;;;;;;24.38;4.10;;;4.00;99.90;;;;;;4950245;28;20158;-77
2024/01/12 03:44:29;;;;;;;14.20;3.65;;;4.00;99.90;;;;;;4950113;28;20128;-77
2024/01/12 03:46:55;;;;;;;16.73;4.20;;;4.00;99.90;;;;;;4950162;28;20385;-77
2024/01/12 03:49:22;;;;;;;21.20;4.28;;;4.00;99.90;;;;;;4950203;28;20038;-77
2024/01/12 03:51:53;;;;;;;24.45;4.90;;;4.00;99.90;;;;;;4973892;28;20034;-77
2024/01/12 03:54:20;;;;;;;21.25;4.38;;;4.00;99.90;;;;;;4950655;28;20043;-77
2024/01/12 03:56:45;;;;;;;19.77;4.57;;;4.00;99.90;;;;;;4949974;28;20027;-77
2024/01/12 03:59:11;;;;;;;21.80;4.07;;;4.00;99.90;;;;;;4947246;28;20081;-77
2024/01/12 04:01:41;;;;;;;23.42;4.40;;;3.90;99.90;;;;;;4949147;29;20057;-77
2024/01/12 04:04:07;;;;;;;21.38;4.13;;;3.90;99.90;;;;;;4949593;28;20093;-77
2024/01/12 04:06:32;;;;;;;20.27;4.10;;;3.90;99.90;;;;;;4950330;28;20019;-77
2024/01/12 04:08:58;;;;;;;18.45;4.60;;;4.00;99.90;;;;;;4949882;28;20110;-77
2024/01/12 04:11:25;;;;;;;19.10;4.22;;;4.00;99.90;;;;;;4950031;28;20023;-77
2024/01/12 04:13:50;;;;;;;19.88;4.70;;;3.90;99.90;;;;;;4950078;29;20075;-77
2024/01/12 04:16:16;;;;;;;13.82;3.92;;;3.90;99.90;;;;;;4949508;28;20031;-77
2024/01/12 04:18:41;;;;;;;17.02;4.03;;;3.90;99.90;;;;;;4949749;28;20039;-78
2024/01/12 04:21:07;;;;;;;14.43;4.20;;;3.90;99.90;;;;;;4949705;28;20026;-78
2024/01/12 04:23:33;;;;;;;19.48;4.72;;;3.90;99.90;;;;;;4946793;28;20045;-78
2024/01/12 04:25:58;;;;;;;23.40;4.30;;;3.90;99.90;;;;;;4949172;28;20042;-77
2024/01/12 04:28:24;;;;;;;22.17;4.25;;;3.90;99.90;;;;;;4949105;28;20110;-78
2024/01/12 04:30:49;;;;;;;19.35;4.05;;;3.90;99.90;;;;;;5031659;28;20023;-78
2024/01/12 04:33:15;;;;;;;17.30;4.15;;;3.90;99.90;;;;;;4949249;29;20031;-78
2024/01/12 04:35:41;;;;;;;17.48;4.88;;;3.90;99.90;;;;;;4945492;28;20832;-78
2024/01/12 04:38:09;;;;;;;26.30;4.57;;;3.90;99.90;;;;;;4949464;28;20023;-78
2024/01/12 04:40:35;;;;;;;17.30;4.40;;;3.90;99.90;;;;;;4949284;28;20023;-77
2024/01/12 04:43:01;;;;;;;14.20;4.25;;;3.90;99.90;;;;;;4949402;28;20480;-77
2024/01/12 04:45:26;;;;;;;19.08;4.47;;;3.90;99.90;;;;;;4949420;28;20030;-77
2024/01/12 04:47:52;;;;;;;20.63;4.22;;;3.90;99.90;;;;;;5032063;28;20383;-77
2024/01/12 04:50:17;;;;;;;18.48;4.00;;;3.90;99.90;;;;;;4948464;28;20942;-77
2024/01/12 04:52:43;;;;;;;16.42;4.05;;;3.90;99.90;;;;;;4949283;28;20028;-77
2024/01/12 04:55:08;;;;;;;15.95;4.57;;;3.90;99.90;;;;;;5014684;28;20747;-77
2024/01/12 04:57:34;;;;;;;18.88;4.35;;;3.90;99.90;;;;;;4948993;28;20020;-77
2024/01/12 05:00:00;;;;;;;24.45;4.70;;;3.80;99.90;;;;;;4949211;28;20029;-78
2024/01/12 05:02:25;;;;;;;19.77;4.50;;;3.80;99.90;;;;;;4948849;28;20023;-77
2024/01/12 05:04:51;;;;;;;22.17;4.40;;;3.80;99.90;;;;;;4950398;28;20027;-77
2024/01/12 05:07:16;;;;;;;16.10;4.35;;;3.80;99.90;;;;;;4952237;28;20463;-77
2024/01/12 05:09:42;;;;;;;18.27;4.60;;;3.80;99.90;;;;;;4952238;28;20027;-77
2024/01/12 05:12:08;;;;;;;14.60;4.32;;;3.80;99.90;;;;;;4952429;28;20495;-77
2024/01/12 05:14:33;;;;;;;14.68;4.45;;;3.80;99.90;;;;;;4940186;28;20106;-77
2024/01/12 05:16:59;;;;;;;19.52;5.10;;;3.80;99.90;;;;;;4952362;28;20137;-77
2024/01/12 05:19:24;;;;;;;14.70;4.57;;;3.70;99.90;;;;;;4949923;28;20055;-78
2024/01/12 05:21:51;;;;;;;20.98;5.07;;;3.70;99.90;;;;;;4951713;29;20104;-78
2024/01/12 05:24:16;;;;;;;15.93;4.82;;;3.70;99.90;;;;;;4952496;29;20410;-77
2024/01/12 05:26:43;;;;;;;16.00;4.75;;;3.70;99.90;;;;;;4951559;28;20035;-78
2024/01/12 05:29:10;;;;;;;23.50;4.95;;;3.70;99.90;;;;;;4951854;28;20031;-77
2024/01/12 05:31:35;;;;;;;18.42;4.38;;;3.70;99.90;;;;;;5028905;28;20019;-78
2024/01/12 05:34:01;;;;;;;14.82;4.63;;;3.70;99.90;;;;;;4948506;29;20041;-77
2024/01/12 05:36:26;;;;;;;16.02;4.72;;;3.70;99.90;;;;;;4951703;29;20027;-78
2024/01/12 05:38:53;;;;;;;13.35;4.70;;;3.70;99.90;;;;;;4951576;28;20027;-76
2024/01/12 05:41:18;;;;;;;14.82;4.82;;;3.70;99.90;;;;;;4951355;28;20030;-76
2024/01/12 05:43:45;;;;;;;18.13;5.50;;;3.70;99.90;;;;;;4951203;28;20534;-76
2024/01/12 05:46:10;;;;;;;12.85;4.97;;;3.70;99.90;;;;;;4951511;28;20392;-76
2024/01/12 05:48:36;;;;;;;20.20;5.05;;;3.70;99.90;;;;;;4947035;28;20058;-76
2024/01/12 05:51:01;;;;;;;15.75;5.30;;;3.60;99.90;;;;;;4950262;28;20480;-76
2024/01/12 05:53:27;;;;;;;14.40;4.70;;;3.70;99.90;;;;;;4948499;29;20026;-76
2024/01/12 05:55:53;;;;;;;16.38;4.90;;;3.60;99.90;;;;;;4951207;28;20073;-76
2024/01/12 05:58:19;;;;;;;12.50;5.03;;;3.60;99.90;;;;;;4952080;28;20084;-76
2024/01/12 06:00:46;;;;;;;18.05;5.40;;;3.60;99.90;;;;;;4950275;29;20019;-76
2024/01/12 06:03:11;;;;;;;21.67;5.28;;;3.60;99.90;;;;;;4950567;28;20484;-77
2024/01/12 06:05:37;;;;;;;17.98;5.45;;;3.60;99.90;;;;;;4950173;28;20035;-76
2024/01/12 06:08:03;;;;;;;18.95;5.57;;;3.60;99.90;;;;;;4967424;28;20019;-76
2024/01/12 06:10:28;;;;;;;17.13;5.38;;;3.60;99.90;;;;;;4950505;28;20126;-76
2024/01/12 06:12:54;;;;;;;21.52;5.82;;;3.60;99.90;;;;;;4950364;28;20080;-77
2024/01/12 06:15:19;;;;;;;20.08;6.07;;;3.60;99.90;;;;;;5015443;28;20031;-77
2024/01/12 06:17:45;;;;;;;20.85;5.72;;;3.60;99.90;;;;;;4939055;28;20054;-77
2024/01/12 06:20:11;;;;;;;26.83;5.82;;;3.60;99.90;;;;;;4950672;28;20041;-77
2024/01/12 06:22:37;;;;;;;14.85;5.35;;;3.60;99.90;;;;;;4941960;28;20031;-77
2024/01/12 06:25:03;;;;;;;13.40;5.75;;;3.60;99.90;;;;;;4946328;29;20516;-77
2024/01/12 06:27:28;;;;;;;22.95;5.45;;;3.60;99.90;;;;;;4951131;28;20031;-77
2024/01/12 06:29:54;;;;;;;20.35;5.65;;;3.60;99.90;;;;;;4936819;28;20038;-77
2024/01/12 06:32:19;;;;;;;16.92;5.85;;;3.60;99.90;;;;;;4947105;28;20078;-76
2024/01/12 06:34:45;;;;;;;21.48;5.95;;;3.50;99.90;;;;;;4950288;28;20102;-76
2024/01/12 06:37:10;;;;;;;19.92;5.57;;;3.50;99.90;;;;;;4950926;28;20454;-76
2024/01/12 06:39:39;;;;;;;16.90;5.85;;;3.50;99.90;;;;;;4949883;28;20112;-75
2024/01/12 06:42:05;;;;;;;18.33;5.75;;;3.50;99.90;;;;;;4949134;28;20028;-75
2024/01/12 06:44:30;;;;;;;21.20;6.40;;;3.50;99.90;;;;;;4944003;29;20438;-74
2024/01/12 06:46:56;;;;;;;18.23;5.97;;;3.50;99.90;;;;;;4940437;29;20025;-74
2024/01/12 06:49:21;;;;;;;20.02;6.07;;;3.40;99.90;;;;;;4943487;28;20027;-74
2024/01/12 06:51:47;;;;;;;19.90;5.75;;;3.40;99.90;;;;;;4949314;28;20031;-73
2024/01/12 06:54:13;;;;;;;18.23;5.70;;;3.40;99.90;;;;;;4949090;28;20106;-74
2024/01/12 06:56:39;;;;;;;19.35;6.13;;;3.40;99.90;;;;;;4943173;28;20278;-74
2024/01/12 06:59:05;;;;;;;21.33;6.35;;;3.40;99.90;;;;;;4944593;29;20054;-74
2024/01/12 07:01:31;;;;;;;20.08;6.60;;;3.40;99.90;;;;;;4949149;28;20023;-74
2024/01/12 07:03:57;;;;;;;19.42;6.22;;;3.40;99.90;;;;;;4944161;28;20020;-74
2024/01/12 07:06:22;;;;;;;17.15;5.97;;;3.40;99.90;;;;;;4938758;28;20032;-74
2024/01/12 07:08:48;;;;;;;21.55;6.40;;;3.40;99.90;;;;;;4950113;29;20427;-74
2024/01/12 07:11:14;;;;;;;17.77;6.13;;;3.30;99.90;;;;;;4950337;28;20535;-74
2024/01/12 07:13:39;;;;;;;18.52;6.18;;;3.40;99.90;;;;;;4950297;29;20065;-74
2024/01/12 07:16:05;;;;;;;21.70;6.55;;;3.40;99.90;;;;;;4950476;28;20024;-74
2024/01/12 07:18:31;;;;;;;18.70;6.25;;;3.30;99.90;;;;;;4951287;28;20070;-74
2024/01/12 07:21:02;;;;;;;26.00;6.70;;;3.30;99.90;;;;;;4950629;28;20380;-75
2024/01/12 07:23:30;;;;;;;18.08;6.65;;;3.40;99.90;;;;;;4950356;29;20468;-75
2024/01/12 07:25:56;;;;;;;20.70;7.55;;;3.40;99.90;;;;;;4937780;28;20028;-75
2024/01/12 07:28:22;;;;;;;25.55;8.13;;;3.40;99.90;;;;;;4948692;28;20522;-74
2024/01/12 07:30:47;;;;;;;20.02;6.50;;;3.40;99.90;;;;;;4948988;28;20024;-74
2024/01/12 07:33:13;;;;;;;22.10;8.00;;;3.40;99.90;;;;;;4949766;28;20045;-74
2024/01/12 07:35:39;;;;;;;23.52;8.57;;;3.40;99.90;;;;;;4949562;28;20026;-74
2024/01/12 07:38:04;;;;;;;25.63;7.88;;;3.40;99.90;;;;;;4949106;29;20487;-74
2024/01/12 07:40:30;;;;;;;21.10;7.78;;;3.50;99.90;;;;;;5014441;28;20039;-74
2024/01/12 07:42:55;;;;;;;20.90;7.78;;;3.40;99.90;;;;;;5032617;28;20483;-74
2024/01/12 07:45:22;;;;;;;20.20;6.65;;;3.40;99.90;;;;;;4949803;28;20660;-74
2024/01/12 07:47:47;;;;;;;20.90;7.10;;;3.40;99.90;;;;;;4950224;28;20383;-74
2024/01/12 07:50:13;;;;;;;20.23;6.47;;;3.40;99.90;;;;;;4949197;28;20126;-74
2024/01/12 07:52:38;;;;;;;21.92;6.60;;;3.40;99.90;;;;;;4949487;28;20055;-74
2024/01/12 07:55:05;;;;;;;19.67;6.88;;;3.40;99.90;;;;;;4949540;28;20023;-75
2024/01/12 07:57:30;;;;;;;24.10;7.50;;;3.50;99.90;;;;;;4950101;28;20020;-75
2024/01/12 07:59:57;;;;;;;21.00;7.38;;;3.50;99.90;;;;;;4949442;28;20042;-75
2024/01/12 08:02:23;;;;;;;18.08;7.13;;;3.50;99.90;;;;;;4949527;28;20411;-74
2024/01/12 08:04:49;;;;;;;19.75;6.75;;;3.50;99.90;;;;;;4949669;28;20023;-75
2024/01/12 08:07:14;;;;;;;19.38;7.38;;;3.50;99.90;;;;;;4968291;28;20028;-75
2024/01/12 08:09:40;;;;;;;16.33;7.15;;;3.50;99.90;;;;;;4949429;28;20155;-75
2024/01/12 08:12:06;;;;;;;18.70;7.78;;;3.50;99.90;;;;;;4950016;28;20049;-75
2024/01/12 08:14:32;;;;;;;25.40;7.38;;;3.50;99.90;;;;;;4949075;28;20361;-75
2024/01/12 08:16:57;;;;;;;19.80;6.93;;;3.50;99.90;;;;;;5015231;28;20090;-75
2024/01/12 08:19:23;;;;;;;22.70;7.43;;;3.50;99.90;;;;;;4937974;28;20092;-74
2024/01/12 08:21:48;;;;;;;18.88;6.93;;;3.60;99.90;;;;;;4949671;28;20019;-75
2024/01/12 08:24:14;;;;;;;16.52;6.28;;;3.60;99.90;;;;;;4949019;28;20034;-74
2024/01/12 08:26:39;;;;;;;25.02;7.22;;;3.60;99.90;;;;;;4950190;28;20047;-74
2024/01/12 08:29:05;;;;;;;22.80;6.75;;;3.60;99.90;;;;;;4948984;28;20042;-75
2024/01/12 08:31:32;;;;;;;22.13;6.22;;;3.60;99.90;;;;;;4948657;29;20024;-74
2024/01/12 08:33:58;;;;;;;22.13;6.82;;;3.70;99.90;;;;;;4949777;28;20030;-74
2024/01/12 08:36:24;;;;;;;29.10;6.47;;;3.70;99.90;;;;;;4950335;28;20031;-76
2024/01/12 08:38:50;;;;;;;23.95;6.97;;;3.70;99.90;;;;;;5016163;28;20058;-75
2024/01/12 08:41:16;;;;;;;25.90;6.80;;;3.80;99.90;;;;;;5031848;28;20023;-75
2024/01/12 08:43:42;;;;;;;29.33;7.07;;;3.80;99.90;;;;;;4947868;28;20108;-75
2024/01/12 08:46:08;;;;;;;26.30;6.60;;;3.90;99.90;;;;;;4948419;28;20535;-75
2024/01/12 08:48:35;;;;;;;24.30;6.38;;;3.90;99.90;;;;;;4952244;28;20031;-75
2024/01/12 08:51:01;;;;;;;25.73;6.10;;;3.90;99.90;;;;;;4949948;28;20110;-75
2024/01/12 08:53:27;;;;;;;20.65;5.22;;;4.00;99.90;;;;;;5013307;28;20527;-75
2024/01/12 08:55:53;;;;;;;23.40;6.30;;;4.00;99.90;;;;;;4946548;28;20023;-75
2024/01/12 08:58:18;;;;;;;27.75;6.28;;;4.10;99.90;;;;;;5013035;28;20392;-76
2024/01/12 09:00:44;;;;;;;28.38;5.88;;;4.10;99.90;;;;;;4948954;29;20019;-74
2024/01/12 09:03:10;;;;;;;26.27;6.65;;;4.20;99.90;;;;;;4949188;28;20107;-74
2024/01/12 09:05:35;;;;;;;32.97;6.00;;;4.20;99.90;;;;;;4948349;28;20550;-74
2024/01/12 09:08:01;;;;;;;21.40;6.20;;;4.30;99.90;;;;;;4948479;29;20027;-75
2024/01/12 09:10:27;;;;;;;23.60;5.88;;;4.30;99.90;;;;;;4948567;28;20200;-74
2024/01/12 09:12:53;;;;;;;21.73;5.97;;;4.40;99.90;;;;;;4949160;28;20700;-74
2024/01/12 09:15:19;;;;;;;25.60;5.97;;;4.40;99.90;;;;;;4938916;28;20083;-74
2024/01/12 09:17:44;;;;;;;26.95;5.90;;;4.50;99.90;;;;;;5013196;28;20085;-74
2024/01/12 09:20:10;;;;;;;24.00;5.70;;;4.50;99.90;;;;;;4948818;28;20153;-75
2024/01/12 09:22:36;;;;;;;22.33;6.32;;;4.50;99.90;;;;;;4947091;29;20102;-75
2024/01/12 09:25:02;;;;;;;38.72;6.07;;;4.60;99.90;;;;;;4949085;28;20103;-74
2024/01/12 09:27:28;;;;;;;23.60;6.10;;;4.60;99.90;;;;;;4949262;29;20022;-74
2024/01/12 09:29:53;;;;;;;19.35;5.70;;;4.60;99.90;;;;;;4947910;28;20043;-74
2024/01/12 09:32:19;;;;;;;18.77;5.15;;;4.60;99.90;;;;;;4938988;28;20038;-73
2024/01/12 09:34:45;;;;;;;22.77;4.90;;;4.70;99.90;;;;;;4948197;28;20430;-74
2024/01/12 09:37:10;;;;;;;29.15;5.57;;;4.70;99.90;;;;;;4949200;28;20484;-73
2024/01/12 09:39:36;;;;;;;25.90;5.10;;;4.70;99.90;;;;;;5014051;28;20027;-73
2024/01/12 09:42:06;;;;;;;18.83;5.78;;;4.70;99.90;;;;;;4944353;28;20095;-74
2024/01/12 09:44:36;;;;;;;28.88;5.72;;;4.80;99.90;;;;;;4948379;28;20031;-73
2024/01/12 09:47:02;;;;;;;22.58;5.70;;;4.80;99.90;;;;;;4949004;28;20058;-74
2024/01/12 09:49:29;;;;;;;21.27;5.13;;;4.80;99.90;;;;;;4998822;28;20470;-74
2024/01/12 09:51:57;;;;;;;23.25;5.80;;;4.80;99.90;;;;;;5019103;28;20023;-73
2024/01/12 09:54:23;;;;;;;24.40;6.13;;;4.80;99.90;;;;;;4953285;28;20397;-73
2024/01/12 09:56:48;;;;;;;34.25;6.75;;;4.80;99.90;;;;;;4951392;28;20023;-74
2024/01/12 09:59:16;;;;;;;24.83;5.47;;;4.90;99.90;;;;;;4951498;28;20039;-74
2024/01/12 10:01:42;;;;;;;24.35;6.15;;;4.90;99.90;;;;;;4951239;28;20019;-74
2024/01/12 10:04:08;;;;;;;23.52;5.68;;;4.90;99.90;;;;;;4951557;28;20020;-74
2024/01/12 10:06:35;;;;;;;23.45;5.28;;;4.90;99.90;;;;;;4951315;28;20034;-75
2024/01/12 10:09:00;;;;;;;22.15;5.30;;;5.00;99.90;;;;;;4951527;28;20399;-74
2024/01/12 10:11:27;;;;;;;17.80;4.95;;;5.00;99.90;;;;;;4951321;28;20023;-74
2024/01/12 10:13:52;;;;;;;21.95;5.75;;;5.00;99.90;;;;;;4951600;28;20023;-74
2024/01/12 10:16:20;;;;;;;28.95;5.45;;;5.00;99.90;;;;;;4950686;28;20081;-74
2024/01/12 10:18:46;;;;;;;23.33;4.90;;;5.00;99.90;;;;;;4951081;28;20138;-73
2024/01/12 10:21:14;;;;;;;21.33;4.88;;;5.10;99.90;;;;;;4950837;28;20023;-73
2024/01/12 10:23:40;;;;;;;23.92;4.50;;;5.10;99.90;;;;;;4951384;28;20023;-74
2024/01/12 10:26:06;;;;;;;19.83;4.38;;;5.10;99.90;;;;;;4937722;28;20024;-74
2024/01/12 10:28:32;;;;;;;23.77;4.85;;;5.10;99.90;;;;;;4944512;28;20034;-74
2024/01/12 10:31:03;;;;;;;23.63;4.70;;;5.20;99.90;;;;;;4950449;28;20019;-74
2024/01/12 10:33:28;;;;;;;19.77;4.43;;;5.20;99.90;;;;;;4951601;29;20088;-74
2024/01/12 10:36:11;;;;;;;19.60;4.53;;;5.20;99.90;;;;;;4951433;28;20028;-74
2024/01/12 10:38:38;;;;;;;23.15;4.57;;;5.20;99.90;;;;;;4951068;28;20031;-74
2024/01/12 10:41:05;;;;;;;23.70;4.47;;;5.20;99.90;;;;;;4950314;28;20509;-74
2024/01/12 10:43:35;;;;;;;25.20;4.40;;;5.20;99.90;;;;;;4947257;28;20024;-74
2024/01/12 10:46:17;;;;;;;18.27;4.10;;;5.30;99.90;;;;;;4950943;28;20027;-74
2024/01/12 10:49:05;;;;;;;24.17;4.75;;;5.30;99.90;;;;;;4950520;28;20123;-74
2024/01/12 10:51:34;;;;;;;22.05;4.70;;;5.30;99.90;;;;;;4950357;28;20035;-75
2024/01/12 10:54:13;;;;;;;21.67;4.38;;;5.30;99.90;;;;;;4944028;28;20074;-74
2024/01/12 10:56:41;;;;;;;22.13;3.90;;;5.40;99.90;;;;;;4947881;28;20023;-74
2024/01/12 10:59:07;;;;;;;20.17;4.20;;;5.40;99.90;;;;;;4950781;28;20023;-74
2024/01/12 11:01:36;;;;;;;15.65;3.60;;;5.40;99.90;;;;;;4941035;29;20070;-75
2024/01/12 11:04:04;;;;;;;23.65;3.85;;;5.50;99.90;;;;;;4942707;29;20115;-74
2024/01/12 11:06:30;;;;;;;21.10;3.83;;;5.50;99.90;;;;;;4952094;28;20499;-74
2024/01/12 11:08:59;;;;;;;18.52;3.95;;;5.50;99.90;;;;;;4951960;28;20388;-74
2024/01/12 11:11:33;;;;;;;19.90;3.72;;;5.50;99.90;;;;;;4943495;29;20034;-74
2024/01/12 11:14:00;;;;;;;21.67;3.72;;;5.50;99.90;;;;;;4950474;28;20038;-75
2024/01/12 11:16:25;;;;;;;18.85;4.00;;;5.60;99.90;;;;;;4946904;28;20043;-74
2024/01/12 11:18:51;;;;;;;21.85;4.35;;;5.60;99.90;;;;;;4950250;28;20055;-74
2024/01/12 11:21:26;;;;;;;18.08;3.42;;;5.60;99.90;;;;;;4949651;28;20026;-75
2024/01/12 11:23:52;;;;;;;23.58;3.92;;;5.60;99.90;;;;;;4950354;28;20024;-75
2024/01/12 11:26:19;;;;;;;18.42;3.38;;;5.70;99.90;;;;;;4948170;28;20047;-75
2024/01/12 11:28:45;;;;;;;23.17;3.85;;;5.70;99.90;;;;;;4950497;28;20526;-74
2024/01/12 11:31:10;;;;;;;18.98;3.75;;;5.70;99.90;;;;;;4949708;28;20055;-75
2024/01/12 11:33:43;;;;;;;23.55;3.60;;;5.70;99.90;;;;;;4950403;28;20098;-75
2024/01/12 11:36:15;;;;;;;20.52;3.65;;;5.70;99.90;;;;;;4950035;28;20019;-74
2024/01/12 11:38:42;;;;;;;19.02;3.25;;;5.70;99.90;;;;;;4948447;28;20057;-74
2024/01/12 11:41:10;;;;;;;22.50;3.78;;;5.80;99.90;;;;;;4950182;28;20016;-74
2024/01/12 11:43:36;;;;;;;16.65;2.70;;;5.80;99.90;;;;;;4947858;28;20024;-74
2024/01/12 11:46:03;;;;;;;15.13;2.88;;;5.80;99.90;;;;;;4950415;28;20141;-74
2024/01/12 11:48:28;;;;;;;22.65;3.47;;;5.80;99.90;;;;;;4949549;28;20201;-74
2024/01/12 11:50:54;;;;;;;16.65;3.38;;;5.90;99.90;;;;;;4944517;28;20085;-74
2024/01/12 11:53:19;;;;;;;13.85;2.60;;;5.90;99.90;;;;;;4946118;28;20039;-75
2024/01/12 11:55:45;;;;;;;19.85;2.53;;;5.90;99.90;;;;;;4940566;28;20026;-74
2024/01/12 11:58:12;;;;;;;18.13;2.50;;;5.90;99.90;;;;;;4950085;28;20034;-74
2024/01/12 12:00:37;;;;;;;17.67;2.95;;;5.90;99.90;;;;;;4945470;28;20513;-74
2024/01/12 12:03:03;;;;;;;16.27;2.58;;;6.00;99.90;;;;;;4949898;28;20030;-74
2024/01/12 12:05:29;;;;;;;16.88;2.90;;;6.00;99.90;;;;;;4947847;28;20030;-73
2024/01/12 12:07:54;;;;;;;16.42;2.10;;;6.00;99.90;;;;;;4945564;28;20027;-74
2024/01/12 12:10:20;;;;;;;16.00;2.05;;;6.00;99.90;;;;;;4949906;28;20035;-74
2024/01/12 12:12:46;;;;;;;14.68;2.63;;;6.00;99.90;;;;;;4947557;28;20293;-74
2024/01/12 12:15:14;;;;;;;15.93;1.70;;;6.00;99.90;;;;;;4949198;28;20023;-74
2024/01/12 12:17:46;;;;;;;6.90;1.23;;;6.10;99.90;;;;;;4936705;28;20053;-74
2024/01/12 12:20:12;;;;;;;13.05;1.73;;;6.10;99.90;;;;;;4948594;28;20058;-73
2024/01/12 12:22:42;;;;;;;9.65;1.38;;;6.10;99.90;;;;;;4948119;28;20035;-74
2024/01/12 12:25:13;;;;;;;4.32;1.00;;;6.10;99.90;;;;;;4942086;28;20428;-74
2024/01/12 12:27:41;;;;;;;8.27;1.38;;;6.20;99.90;;;;;;4946481;28;20101;-72
2024/01/12 12:30:11;;;;;;;9.23;1.13;;;6.20;99.90;;;;;;4947246;28;20514;-72
2024/01/12 12:32:41;;;;;;;5.78;1.05;;;6.20;99.90;;;;;;4948945;29;20031;-72
2024/01/12 12:35:17;;;;;;;8.57;0.93;;;6.20;99.90;;;;;;4943821;28;20081;-72
2024/01/12 12:37:44;;;;;;;8.27;1.05;;;6.10;99.90;;;;;;4948434;28;20037;-72
2024/01/12 12:40:11;;;;;;;6.00;0.80;;;6.10;99.90;;;;;;4947718;28;20035;-72
2024/01/12 12:42:43;;;;;;;11.82;1.35;;;6.10;99.90;;;;;;4948895;28;20019;-73